createdAt,value
2018-07-07T00:01:18.393Z,62.19
2018-07-07T00:03:47.501Z,61.74
2018-07-07T00:06:16.626Z,62.27
2018-07-07T00:08:45.729Z,62.11
2018-07-07T00:11:14.865Z,63.61
2018-07-07T00:13:43.965Z,62.66
2018-07-07T00:16:13.090Z,62.88
2018-07-07T00:18:42.173Z,62.89
2018-07-07T00:21:11.285Z,62.86
2018-07-07T00:23:40.361Z,62.56
2018-07-07T00:26:09.462Z,63.44
2018-07-07T00:28:38.556Z,63.05
2018-07-07T00:31:07.742Z,63.58
2018-07-07T00:33:36.825Z,63.11
2018-07-07T00:36:05.918Z,63.68
2018-07-07T00:38:35.009Z,64.54
2018-07-07T00:41:04.141Z,63.87
2018-07-07T00:43:33.221Z,63.98
2018-07-07T00:46:02.325Z,64.22
2018-07-07T00:48:31.461Z,64.64
2018-07-07T00:51:00.589Z,65.04
2018-07-07T00:53:29.669Z,64.41
2018-07-07T00:55:58.765Z,65.43
2018-07-07T00:58:28.853Z,64.46
2018-07-07T01:00:57.969Z,64.97
2018-07-07T01:03:27.089Z,64.83
2018-07-07T01:05:56.221Z,65.78
2018-07-07T01:08:25.317Z,66.35
2018-07-07T01:10:54.397Z,65.14
2018-07-07T01:13:23.489Z,65.24
2018-07-07T01:15:52.607Z,65.53
2018-07-07T01:18:21.693Z,65.45
2018-07-07T01:20:50.784Z,65.74
2018-07-07T01:23:19.887Z,65.39
2018-07-07T01:25:48.965Z,66.42
2018-07-07T01:28:18.092Z,66.37
2018-07-07T01:30:47.193Z,65.97
2018-07-07T01:33:16.286Z,66.13
2018-07-07T01:35:45.377Z,64.66
2018-07-07T01:38:14.481Z,65.76
2018-07-07T01:40:43.589Z,66.19
2018-07-07T01:43:12.672Z,66.42
2018-07-07T01:45:41.869Z,66.52
2018-07-07T01:48:10.957Z,65.71
2018-07-07T01:50:40.082Z,66.82
2018-07-07T01:53:09.537Z,67.02
2018-07-07T01:55:38.957Z,66.75
2018-07-07T01:58:08.268Z,67.16
2018-07-07T02:00:37.381Z,67.20
2018-07-07T02:03:06.513Z,67.17
2018-07-07T02:05:35.637Z,67.37
2018-07-07T02:08:04.749Z,66.35
2018-07-07T02:10:33.862Z,66.57
2018-07-07T02:13:02.995Z,66.77
2018-07-07T02:15:32.165Z,66.91
2018-07-07T02:18:01.245Z,67.31
2018-07-07T02:20:30.364Z,67.42
2018-07-07T02:22:59.449Z,66.79
2018-07-07T02:25:28.550Z,67.89
2018-07-07T02:27:57.637Z,68.35
2018-07-07T02:30:26.738Z,68.46
2018-07-07T02:32:56.266Z,68.48
2018-07-07T02:35:25.629Z,68.62
2018-07-07T02:37:54.757Z,67.06
2018-07-07T02:40:23.845Z,67.87
2018-07-07T02:42:52.928Z,68.33
2018-07-07T02:45:22.069Z,67.28
2018-07-07T02:47:51.276Z,68.54
2018-07-07T02:50:20.414Z,68.44
2018-07-07T02:52:49.505Z,68.25
2018-07-07T02:55:18.605Z,68.79
2018-07-07T02:57:47.687Z,68.99
2018-07-07T03:00:16.791Z,68.94
2018-07-07T03:02:45.905Z,68.50
2018-07-07T03:05:15.050Z,69.11
2018-07-07T03:07:44.129Z,68.95
2018-07-07T03:10:13.297Z,69.10
2018-07-07T03:12:42.393Z,69.50
2018-07-07T03:15:17.286Z,68.83
2018-07-07T03:17:46.397Z,69.58
2018-07-07T03:20:15.517Z,69.51
2018-07-07T03:22:44.629Z,70.73
2018-07-07T03:25:13.725Z,69.25
2018-07-07T03:27:42.841Z,70.25
2018-07-07T03:30:11.953Z,69.08
2018-07-07T03:32:41.070Z,70.36
2018-07-07T03:35:10.163Z,70.64
2018-07-07T03:37:39.261Z,70.48
2018-07-07T03:40:08.380Z,70.61
2018-07-07T03:42:37.473Z,69.51
2018-07-07T03:45:06.593Z,70.17
2018-07-07T03:47:35.685Z,70.38
2018-07-07T03:50:04.813Z,69.98
2018-07-07T03:52:33.932Z,71.07
2018-07-07T03:55:03.048Z,69.87
2018-07-07T03:57:32.138Z,69.67
2018-07-07T04:00:01.217Z,70.52
2018-07-07T04:02:30.304Z,71.12
2018-07-07T04:04:59.393Z,71.16
2018-07-07T04:07:28.469Z,71.18
2018-07-07T04:09:57.553Z,71.39
2018-07-07T04:12:26.654Z,72.47
2018-07-07T04:14:55.749Z,71.19
2018-07-07T04:17:24.882Z,72.19
2018-07-07T04:19:53.982Z,72.27
2018-07-07T04:22:23.111Z,72.04
2018-07-07T04:24:52.229Z,71.06
2018-07-07T04:27:21.318Z,71.55
2018-07-07T04:29:50.417Z,71.67
2018-07-07T04:32:19.519Z,70.99
2018-07-07T04:34:48.625Z,71.75
2018-07-07T04:37:17.744Z,71.53
2018-07-07T04:39:46.853Z,70.72
2018-07-07T04:42:15.945Z,70.96
2018-07-07T04:44:45.363Z,70.70
2018-07-07T04:47:14.465Z,70.24
2018-07-07T04:49:43.586Z,70.93
2018-07-07T04:52:12.678Z,71.95
2018-07-07T04:54:41.765Z,72.06
2018-07-07T04:57:10.861Z,72.01
2018-07-07T04:59:39.981Z,71.84
2018-07-07T05:02:09.116Z,71.36
2018-07-07T05:04:38.239Z,72.68
2018-07-07T05:07:07.330Z,70.92
2018-07-07T05:09:36.421Z,71.92
2018-07-07T05:12:05.793Z,70.51
2018-07-07T05:14:34.898Z,70.85
2018-07-07T05:17:04.047Z,70.84
2018-07-07T05:19:33.141Z,71.60
2018-07-07T05:22:02.349Z,71.37
2018-07-07T05:24:31.459Z,70.91
2018-07-07T05:27:00.561Z,70.68
2018-07-07T05:29:29.643Z,70.57
2018-07-07T05:31:58.761Z,69.77
2018-07-07T05:34:28.457Z,71.80
2018-07-07T05:36:57.575Z,70.56
2018-07-07T05:39:26.728Z,69.93
2018-07-07T05:41:55.821Z,70.41
2018-07-07T05:44:24.925Z,69.29
2018-07-07T05:46:54.037Z,69.52
2018-07-07T05:49:23.145Z,69.82
2018-07-07T05:51:52.240Z,70.45
2018-07-07T05:54:21.348Z,70.84
2018-07-07T05:56:50.471Z,70.09
2018-07-07T05:59:19.565Z,69.65
2018-07-07T06:01:48.681Z,69.83
2018-07-07T06:04:17.797Z,71.29
2018-07-07T06:06:46.901Z,70.52
2018-07-07T06:09:16.061Z,70.36
2018-07-07T06:11:45.146Z,68.89
2018-07-07T06:14:14.254Z,69.84
2018-07-07T06:16:43.369Z,69.27
2018-07-07T06:19:12.481Z,69.15
2018-07-07T06:21:41.600Z,68.34
2018-07-07T06:24:10.769Z,68.59
2018-07-07T06:26:39.906Z,67.14
2018-07-07T06:29:09.000Z,67.18
2018-07-07T06:31:38.101Z,66.57
2018-07-07T06:34:07.209Z,65.34
2018-07-07T06:36:36.329Z,65.18
2018-07-07T06:39:06.577Z,64.55
2018-07-07T06:41:35.720Z,65.64
2018-07-07T06:44:04.837Z,65.54
2018-07-07T06:46:33.957Z,64.92
2018-07-07T06:49:03.042Z,63.34
2018-07-07T06:51:32.167Z,63.53
2018-07-07T06:54:01.360Z,61.91
2018-07-07T06:56:30.389Z,63.30
2018-07-07T06:58:59.483Z,62.66
2018-07-07T07:01:28.581Z,62.94
2018-07-07T07:03:57.689Z,61.92
2018-07-07T07:06:26.787Z,59.84
2018-07-07T07:08:57.932Z,59.15
2018-07-07T07:11:27.068Z,58.56
2018-07-07T07:13:56.165Z,56.90
2018-07-07T07:16:25.266Z,55.84
2018-07-07T07:18:54.374Z,56.52
2018-07-07T07:21:23.481Z,55.60
2018-07-07T07:23:52.649Z,54.90
2018-07-07T07:26:21.757Z,55.18
2018-07-07T07:28:51.065Z,55.18
2018-07-07T07:31:21.874Z,55.46
2018-07-07T07:33:51.082Z,56.54
2018-07-07T07:36:31.625Z,56.71
2018-07-07T07:39:00.770Z,59.51
2018-07-07T07:41:29.884Z,57.53
2018-07-07T07:43:59.125Z,59.30
2018-07-07T07:46:28.614Z,59.03
2018-07-07T07:48:57.825Z,56.38
2018-07-07T07:51:27.136Z,57.48
2018-07-07T07:53:56.613Z,55.07
2018-07-07T07:56:26.481Z,53.33
2018-07-07T07:58:56.424Z,50.21
2018-07-07T08:01:25.830Z,51.76
2018-07-07T08:03:55.463Z,52.19
2018-07-07T08:06:24.588Z,49.02
2018-07-07T08:08:53.713Z,48.37
2018-07-07T08:11:22.849Z,49.84
2018-07-07T08:13:51.967Z,49.51
2018-07-07T08:16:21.040Z,48.75
2018-07-07T08:18:50.176Z,49.36
2018-07-07T08:21:19.257Z,48.94
2018-07-07T08:23:48.372Z,49.12
2018-07-07T08:26:19.766Z,48.35
2018-07-07T08:28:48.917Z,48.19
2018-07-07T08:31:18.029Z,46.16
2018-07-07T08:33:47.113Z,44.61
2018-07-07T08:36:16.217Z,45.17
2018-07-07T08:38:45.328Z,41.94
2018-07-07T08:41:14.713Z,40.12
2018-07-07T08:43:44.001Z,42.02
2018-07-07T08:46:13.081Z,43.01
2018-07-07T08:48:42.150Z,40.02
2018-07-07T08:51:11.248Z,39.51
2018-07-07T08:53:40.342Z,39.34
2018-07-07T08:56:09.429Z,38.32
2018-07-07T08:58:38.578Z,36.68
2018-07-07T09:01:07.673Z,36.44
2018-07-07T09:03:36.791Z,37.04
2018-07-07T09:06:06.693Z,37.50
2018-07-07T09:08:35.811Z,36.42
2018-07-07T09:11:04.912Z,37.02
2018-07-07T09:13:33.996Z,36.26
2018-07-07T09:16:03.123Z,37.80
2018-07-07T09:18:32.356Z,37.43
2018-07-07T09:21:01.469Z,37.89
2018-07-07T09:23:30.623Z,38.06
2018-07-07T09:25:59.844Z,38.87
2018-07-07T09:28:28.971Z,40.01
2018-07-07T09:30:58.198Z,40.10
2018-07-07T09:33:27.301Z,39.82
2018-07-07T09:35:56.451Z,39.79
2018-07-07T09:38:25.643Z,38.33
2018-07-07T09:40:54.728Z,37.89
2018-07-07T09:43:23.970Z,37.19
2018-07-07T09:45:53.089Z,38.36
2018-07-07T09:48:22.169Z,38.53
2018-07-07T09:50:51.261Z,37.38
2018-07-07T09:53:20.349Z,38.64
2018-07-07T09:55:49.465Z,39.13
2018-07-07T09:58:18.585Z,38.51
2018-07-07T10:00:47.685Z,39.32
2018-07-07T10:03:16.774Z,38.77
2018-07-07T10:05:46.149Z,37.27
2018-07-07T10:08:15.253Z,38.52
2018-07-07T10:10:45.944Z,37.65
2018-07-07T10:13:15.181Z,38.09
2018-07-07T10:15:44.285Z,38.57
2018-07-07T10:18:13.377Z,36.67
2018-07-07T10:20:42.502Z,34.99
2018-07-07T10:23:11.557Z,33.98
2018-07-07T10:25:40.730Z,34.53
2018-07-07T10:28:09.820Z,35.72
2018-07-07T10:30:38.930Z,35.50
2018-07-07T10:33:08.045Z,34.36
2018-07-07T10:35:37.145Z,35.35
2018-07-07T10:38:06.330Z,34.49
2018-07-07T10:40:35.397Z,34.77
2018-07-07T10:43:04.481Z,34.47
2018-07-07T10:45:33.637Z,35.03
2018-07-07T10:48:02.701Z,35.38
2018-07-07T10:50:31.813Z,34.66
2018-07-07T10:53:01.022Z,34.96
2018-07-07T10:55:30.155Z,32.65
2018-07-07T10:57:59.221Z,32.56
2018-07-07T11:00:28.312Z,32.25
2018-07-07T11:02:57.408Z,33.42
2018-07-07T11:05:26.504Z,32.06
2018-07-07T11:07:55.662Z,32.19
2018-07-07T11:10:24.777Z,32.46
2018-07-07T11:12:53.881Z,31.60
2018-07-07T11:15:22.944Z,33.23
2018-07-07T11:17:52.096Z,33.12
2018-07-07T11:20:21.214Z,33.13
2018-07-07T11:22:50.333Z,33.10
2018-07-07T11:25:19.413Z,31.98
2018-07-07T11:27:48.633Z,31.80
2018-07-07T11:30:17.722Z,30.22
2018-07-07T11:32:46.805Z,30.71
2018-07-07T11:35:15.909Z,32.48
2018-07-07T11:37:45.061Z,31.55
2018-07-07T11:40:14.309Z,32.23
2018-07-07T11:42:43.415Z,30.67
2018-07-07T11:45:12.512Z,31.48
2018-07-07T11:47:41.880Z,32.27
2018-07-07T11:50:15.700Z,31.78
2018-07-07T11:52:44.705Z,30.68
2018-07-07T11:55:13.773Z,30.22
2018-07-07T11:57:42.857Z,30.87
2018-07-07T12:00:11.989Z,30.28
2018-07-07T12:02:41.165Z,29.58
2018-07-07T12:05:10.245Z,29.71
2018-07-07T12:07:39.361Z,29.60
2018-07-07T12:10:08.645Z,29.99
2018-07-07T12:12:37.737Z,28.98
2018-07-07T12:15:07.048Z,30.19
2018-07-07T12:17:36.125Z,29.33
2018-07-07T12:20:05.374Z,30.55
2018-07-07T12:22:34.501Z,29.59
2018-07-07T12:25:03.609Z,29.99
2018-07-07T12:27:32.707Z,30.00
2018-07-07T12:30:01.857Z,30.70
2018-07-07T12:32:30.980Z,30.20
2018-07-07T12:35:00.210Z,31.49
2018-07-07T12:37:29.610Z,29.80
2018-07-07T12:39:58.855Z,27.53
2018-07-07T12:42:27.933Z,27.23
2018-07-07T12:44:57.033Z,28.97
2018-07-07T12:47:26.149Z,27.92
2018-07-07T12:49:55.279Z,27.62
2018-07-07T12:52:24.477Z,26.68
2018-07-07T12:54:53.573Z,26.63
2018-07-07T12:57:22.666Z,27.72
2018-07-07T12:59:51.796Z,27.34
2018-07-07T13:02:20.909Z,27.06
2018-07-07T13:04:50.052Z,26.37
2018-07-07T13:07:19.169Z,27.51
2018-07-07T13:09:48.337Z,27.93
2018-07-07T13:12:17.424Z,26.87
2018-07-07T13:14:46.672Z,28.10
2018-07-07T13:17:15.858Z,27.17
2018-07-07T13:19:45.873Z,27.27
2018-07-07T13:22:15.030Z,26.11
2018-07-07T13:24:44.112Z,27.10
2018-07-07T13:27:13.306Z,27.47
2018-07-07T13:29:42.409Z,26.65
2018-07-07T13:32:11.525Z,27.62
2018-07-07T13:34:40.873Z,27.40
2018-07-07T13:37:12.027Z,27.31
2018-07-07T13:39:42.749Z,26.83
2018-07-07T13:42:12.779Z,27.73
2018-07-07T13:44:42.113Z,28.83
2018-07-07T13:47:11.417Z,27.37
2018-07-07T13:49:40.528Z,27.22
2018-07-07T13:52:09.624Z,27.76
2018-07-07T13:54:38.721Z,27.13
2018-07-07T13:57:07.825Z,27.70
2018-07-07T13:59:36.949Z,26.55
2018-07-07T14:02:06.117Z,27.07
2018-07-07T14:04:35.225Z,27.83
2018-07-07T14:07:04.325Z,28.02
2018-07-07T14:09:33.507Z,27.52
2018-07-07T14:12:02.601Z,27.32
2018-07-07T14:14:31.700Z,28.48
2018-07-07T14:17:00.864Z,26.62
2018-07-07T14:19:29.934Z,28.14
2018-07-07T14:21:59.097Z,28.41
2018-07-07T14:24:28.272Z,28.39
2018-07-07T14:26:57.381Z,27.37
2018-07-07T14:29:26.469Z,27.16
2018-07-07T14:31:55.651Z,26.94
2018-07-07T14:34:24.694Z,27.92
2018-07-07T14:36:54.621Z,27.56
2018-07-07T14:39:25.893Z,27.51
2018-07-07T14:42:03.051Z,28.51
2018-07-07T14:44:32.169Z,28.21
2018-07-07T14:47:01.265Z,29.75
2018-07-07T14:49:30.394Z,28.62
2018-07-07T14:51:59.484Z,28.16
2018-07-07T14:54:28.793Z,27.60
2018-07-07T14:56:57.885Z,28.61
2018-07-07T14:59:27.000Z,28.18
2018-07-07T15:01:56.255Z,28.29
2018-07-07T15:04:25.345Z,28.58
2018-07-07T15:06:54.462Z,29.82
2018-07-07T15:09:23.589Z,29.53
2018-07-07T15:11:56.866Z,28.93
2018-07-07T15:14:25.961Z,29.26
2018-07-07T15:16:55.053Z,28.38
2018-07-07T15:19:24.161Z,29.74
2018-07-07T15:21:53.217Z,29.28
2018-07-07T15:24:22.347Z,28.98
2018-07-07T15:26:51.461Z,28.36
2018-07-07T15:29:20.590Z,28.93
2018-07-07T15:31:49.702Z,28.78
2018-07-07T15:34:18.835Z,29.02
2018-07-07T15:36:47.925Z,29.53
2018-07-07T15:39:17.068Z,29.69
2018-07-07T15:41:46.797Z,29.29
2018-07-07T15:44:15.933Z,28.65
2018-07-07T15:46:45.046Z,30.16
2018-07-07T15:49:14.130Z,29.24
2018-07-07T15:51:43.301Z,29.87
2018-07-07T15:54:12.436Z,28.90
2018-07-07T15:56:41.596Z,29.29
2018-07-07T15:59:10.678Z,29.92
2018-07-07T16:01:39.848Z,30.99
2018-07-07T16:04:09.037Z,30.23
2018-07-07T16:06:38.133Z,30.08
2018-07-07T16:09:07.707Z,29.30
2018-07-07T16:11:36.810Z,30.39
2018-07-07T16:14:05.922Z,29.82
2018-07-07T16:16:35.062Z,30.03
2018-07-07T16:19:04.229Z,29.90
2018-07-07T16:21:33.353Z,30.77
2018-07-07T16:24:02.485Z,31.33
2018-07-07T16:26:31.581Z,31.25
2018-07-07T16:29:00.661Z,30.47
2018-07-07T16:31:29.777Z,30.73
2018-07-07T16:33:58.857Z,31.20
2018-07-07T16:36:27.980Z,30.93
2018-07-07T16:38:57.333Z,30.67
2018-07-07T16:41:26.512Z,31.80
2018-07-07T16:43:55.833Z,30.60
2018-07-07T16:46:24.965Z,30.15
2018-07-07T16:48:54.113Z,31.83
2018-07-07T16:51:23.260Z,31.88
2018-07-07T16:53:52.441Z,31.63
2018-07-07T16:56:21.778Z,31.16
2018-07-07T16:58:50.914Z,32.20
2018-07-07T17:01:20.029Z,32.23
2018-07-07T17:03:49.182Z,32.66
2018-07-07T17:06:18.333Z,32.06
2018-07-07T17:08:47.514Z,32.15
2018-07-07T17:11:16.643Z,32.45
2018-07-07T17:13:46.050Z,31.87
2018-07-07T17:16:15.145Z,31.54
2018-07-07T17:18:44.389Z,32.70
2018-07-07T17:21:15.642Z,31.95
2018-07-07T17:23:44.820Z,32.01
2018-07-07T17:26:13.973Z,32.42
2018-07-07T17:28:43.117Z,32.97
2018-07-07T17:31:12.265Z,33.05
2018-07-07T17:33:41.404Z,33.02
2018-07-07T17:36:10.558Z,33.51
2018-07-07T17:38:39.673Z,32.56
2018-07-07T17:41:08.818Z,32.68
2018-07-07T17:43:37.969Z,32.75
2018-07-07T17:46:07.138Z,33.50
2018-07-07T17:48:36.317Z,34.13
2018-07-07T17:51:06.410Z,33.29
2018-07-07T17:53:36.678Z,33.58
2018-07-07T17:56:05.990Z,34.24
2018-07-07T17:58:35.260Z,34.45
2018-07-07T18:01:04.441Z,34.38
2018-07-07T18:03:35.285Z,33.43
2018-07-07T18:06:04.461Z,34.10
2018-07-07T18:08:33.561Z,33.92
2018-07-07T18:11:02.645Z,34.71
2018-07-07T18:13:31.797Z,34.53
2018-07-07T18:16:00.989Z,35.08
2018-07-07T18:18:30.081Z,34.41
2018-07-07T18:20:59.209Z,34.55
2018-07-07T18:23:28.345Z,34.79
2018-07-07T18:25:57.557Z,35.21
2018-07-07T18:28:26.677Z,35.37
2018-07-07T18:30:55.920Z,35.46
2018-07-07T18:33:25.045Z,34.89
2018-07-07T18:35:54.189Z,35.38
2018-07-07T18:38:23.464Z,35.01
2018-07-07T18:40:52.537Z,35.05
2018-07-07T18:43:21.656Z,35.37
2018-07-07T18:45:50.841Z,35.34
2018-07-07T18:48:20.030Z,34.62
2018-07-07T18:50:49.165Z,34.49
2018-07-07T18:53:18.309Z,35.26
2018-07-07T18:55:47.441Z,35.90
2018-07-07T18:58:16.600Z,35.71
2018-07-07T19:00:45.713Z,35.23
2018-07-07T19:03:15.454Z,36.26
2018-07-07T19:05:44.549Z,35.42
2018-07-07T19:08:13.665Z,36.33
2018-07-07T19:10:42.825Z,36.30
2018-07-07T19:13:11.929Z,35.78
2018-07-07T19:15:45.584Z,35.44
2018-07-07T19:18:14.864Z,35.38
2018-07-07T19:20:49.417Z,35.38
2018-07-07T19:23:23.664Z,36.13
2018-07-07T19:25:57.966Z,35.61
2018-07-07T19:28:27.103Z,35.15
2018-07-07T19:30:56.197Z,35.83
2018-07-07T19:33:30.805Z,34.69
2018-07-07T19:36:05.226Z,35.01
2018-07-07T19:38:34.330Z,35.70
2018-07-07T19:41:03.479Z,35.77
2018-07-07T19:43:32.558Z,35.90
2018-07-07T19:46:01.639Z,36.26
2018-07-07T19:48:30.725Z,35.86
2018-07-07T19:50:59.817Z,35.95
2018-07-07T19:53:31.697Z,37.04
2018-07-07T19:56:00.780Z,36.92
2018-07-07T19:58:29.865Z,36.50
2018-07-07T20:00:58.945Z,37.54
2018-07-07T20:03:28.054Z,36.88
2018-07-07T20:05:57.169Z,37.75
2018-07-07T20:08:26.261Z,37.37
2018-07-07T20:10:55.337Z,38.00
2018-07-07T20:13:24.427Z,37.53
2018-07-07T20:16:19.584Z,37.79
2018-07-07T20:19:21.213Z,38.82
2018-07-07T20:21:53.217Z,38.71
2018-07-07T20:24:24.579Z,38.79
2018-07-07T20:26:58.981Z,39.08
2018-07-07T20:29:28.117Z,37.96
2018-07-07T20:31:57.227Z,37.98
2018-07-07T20:34:27.674Z,37.88
2018-07-07T20:36:56.798Z,38.29
2018-07-07T20:39:26.205Z,37.84
2018-07-07T20:41:57.496Z,37.88
2018-07-07T20:44:26.881Z,37.87
2018-07-07T20:46:55.961Z,37.93
2018-07-07T20:49:25.069Z,39.03
2018-07-07T20:51:54.181Z,39.12
2018-07-07T20:54:23.344Z,38.54
2018-07-07T20:56:52.452Z,38.65
2018-07-07T20:59:21.549Z,38.69
2018-07-07T21:01:50.659Z,39.64
2018-07-07T21:04:19.724Z,39.79
2018-07-07T21:06:48.839Z,39.70
2018-07-07T21:09:17.957Z,38.92
2018-07-07T21:11:47.452Z,39.04
2018-07-07T21:14:16.573Z,39.33
2018-07-07T21:16:45.665Z,39.78
2018-07-07T21:19:14.753Z,40.67
2018-07-07T21:21:43.853Z,40.15
2018-07-07T21:24:13.108Z,40.82
2018-07-07T21:26:42.205Z,41.58
2018-07-07T21:29:11.337Z,42.13
2018-07-07T21:31:40.425Z,41.41
2018-07-07T21:34:09.538Z,41.49
2018-07-07T21:36:38.672Z,41.45
2018-07-07T21:39:07.846Z,42.47
2018-07-07T21:41:36.942Z,42.39
2018-07-07T21:44:06.402Z,42.27
2018-07-07T21:46:35.526Z,41.67
2018-07-07T21:49:04.664Z,41.89
2018-07-07T21:51:34.025Z,42.09
2018-07-07T21:54:03.235Z,41.71
2018-07-07T21:56:32.237Z,41.81
2018-07-07T21:59:33.086Z,42.65
2018-07-07T22:02:07.449Z,42.49
2018-07-07T22:04:41.827Z,42.36
2018-07-07T22:07:47.817Z,42.50
2018-07-07T22:10:16.941Z,43.09
2018-07-07T22:12:46.060Z,42.85
2018-07-07T22:15:15.189Z,43.08
2018-07-07T22:17:44.269Z,44.29
2018-07-07T22:20:14.445Z,43.38
2018-07-07T22:22:43.593Z,44.08
2018-07-07T22:25:12.689Z,44.08
2018-07-07T22:27:41.813Z,43.49
2018-07-07T22:30:10.929Z,44.15
2018-07-07T22:32:40.150Z,44.93
2018-07-07T22:35:16.923Z,44.70
2018-07-07T22:37:47.057Z,45.40
2018-07-07T22:40:16.141Z,44.50
2018-07-07T22:42:45.357Z,46.03
2018-07-07T22:45:14.469Z,45.48
2018-07-07T22:47:43.593Z,45.22
2018-07-07T22:50:12.681Z,45.16
2018-07-07T22:52:41.815Z,45.05
2018-07-07T22:55:11.071Z,46.42
2018-07-07T22:57:40.201Z,46.44
2018-07-07T23:00:09.305Z,46.86
2018-07-07T23:02:38.151Z,46.10
2018-07-07T23:05:07.273Z,45.95
2018-07-07T23:07:36.377Z,46.04
2018-07-07T23:10:05.838Z,47.03
2018-07-07T23:12:34.933Z,46.41
2018-07-07T23:15:04.065Z,47.92
2018-07-07T23:17:33.152Z,47.68
2018-07-07T23:20:02.285Z,46.60
2018-07-07T23:22:43.133Z,46.73
2018-07-07T23:25:12.233Z,47.17
2018-07-07T23:27:41.318Z,46.78
2018-07-07T23:30:10.516Z,47.84
2018-07-07T23:32:39.675Z,47.82
2018-07-07T23:35:08.905Z,46.87
2018-07-07T23:37:38.002Z,47.92
2018-07-07T23:40:07.196Z,47.77
2018-07-07T23:42:36.401Z,47.78
2018-07-07T23:45:05.761Z,47.50
2018-07-07T23:47:34.854Z,48.51
2018-07-07T23:50:04.305Z,48.21
2018-07-07T23:52:33.437Z,48.94
2018-07-07T23:55:02.885Z,48.39
2018-07-07T23:57:32.018Z,48.41
